createdAt,value
2019-03-18T00:00:05.557Z,76.25
2019-03-18T00:02:34.075Z,76.03
2019-03-18T00:05:00.891Z,75.90
2019-03-18T00:07:27.601Z,76.08
2019-03-18T00:09:54.269Z,75.90
2019-03-18T00:12:20.990Z,75.88
2019-03-18T00:14:47.617Z,75.43
2019-03-18T00:17:14.320Z,75.33
2019-03-18T00:19:42.937Z,75.92
2019-03-18T00:22:09.598Z,76.01
2019-03-18T00:24:36.303Z,74.83
2019-03-18T00:27:03.066Z,75.54
2019-03-18T00:29:29.701Z,76.12
2019-03-18T00:31:56.413Z,76.17
2019-03-18T00:34:23.120Z,75.96
2019-03-18T00:36:49.757Z,75.61
2019-03-18T00:39:16.476Z,75.96
2019-03-18T00:41:43.248Z,76.12
2019-03-18T00:44:10.004Z,75.49
2019-03-18T00:46:36.729Z,75.33
2019-03-18T00:49:03.435Z,75.97
2019-03-18T00:51:30.061Z,76.12
2019-03-18T00:53:56.736Z,76.04
2019-03-18T00:56:23.417Z,75.85
2019-03-18T00:58:50.166Z,76.23
2019-03-18T01:01:16.887Z,75.30
2019-03-18T01:03:43.699Z,75.70
2019-03-18T01:06:10.315Z,75.92
2019-03-18T01:08:36.976Z,75.79
2019-03-18T01:11:04.333Z,75.69
2019-03-18T01:13:30.962Z,75.29
2019-03-18T01:15:57.568Z,75.51
2019-03-18T01:18:24.256Z,75.66
2019-03-18T01:20:50.874Z,76.31
2019-03-18T01:23:17.591Z,75.30
2019-03-18T01:25:44.262Z,75.66
2019-03-18T01:28:10.886Z,75.54
2019-03-18T01:30:37.492Z,75.33
2019-03-18T01:33:04.189Z,76.22
2019-03-18T01:35:30.800Z,76.53
2019-03-18T01:37:57.444Z,76.56
2019-03-18T01:40:24.197Z,76.92
2019-03-18T01:42:50.892Z,77.36
2019-03-18T01:45:17.596Z,77.55
2019-03-18T01:47:45.197Z,77.52
2019-03-18T01:50:13.007Z,77.52
2019-03-18T01:52:39.739Z,77.34
2019-03-18T01:55:06.449Z,76.84
2019-03-18T01:57:33.052Z,76.77
2019-03-18T02:00:45.129Z,76.74
2019-03-18T02:03:59.315Z,76.63
2019-03-18T02:07:13.132Z,76.66
2019-03-18T02:10:16.777Z,77.09
2019-03-18T02:13:23.037Z,76.23
2019-03-18T02:16:23.047Z,75.14
2019-03-18T02:19:24.910Z,75.15
2019-03-18T02:22:34.716Z,74.59
2019-03-18T02:25:39.663Z,74.98
2019-03-18T02:28:36.206Z,75.76
2019-03-18T02:31:31.107Z,75.54
2019-03-18T02:34:29.374Z,75.15
2019-03-18T02:37:31.222Z,74.77
2019-03-18T02:40:30.396Z,74.21
2019-03-18T02:43:32.993Z,75.56
2019-03-18T02:46:32.671Z,75.88
2019-03-18T02:49:31.680Z,74.92
2019-03-18T02:52:31.096Z,73.97
2019-03-18T02:55:36.390Z,71.91
2019-03-18T02:58:26.815Z,70.09
2019-03-18T03:01:20.957Z,70.92
2019-03-18T03:04:16.931Z,70.02
2019-03-18T03:07:11.213Z,70.69
2019-03-18T03:10:07.376Z,71.12
2019-03-18T03:13:12.894Z,70.78
2019-03-18T03:16:08.101Z,70.62
2019-03-18T03:19:04.642Z,70.56
2019-03-18T03:21:57.886Z,70.49
2019-03-18T03:24:54.698Z,69.81
2019-03-18T03:27:45.916Z,70.22
2019-03-18T03:30:47.080Z,70.25
2019-03-18T03:33:44.464Z,70.58
2019-03-18T03:36:36.488Z,70.04
2019-03-18T03:39:29.688Z,70.49
2019-03-18T03:42:31.766Z,70.11
2019-03-18T03:45:36.618Z,69.35
2019-03-18T03:48:44.578Z,69.43
2019-03-18T03:52:05.364Z,69.36
2019-03-18T03:55:15.448Z,69.36
2019-03-18T03:58:43.375Z,69.13
2019-03-18T04:01:52.336Z,69.01
2019-03-18T04:05:08.685Z,67.98
2019-03-18T04:08:17.413Z,68.08
2019-03-18T04:11:33.807Z,67.38
2019-03-18T04:14:40.307Z,67.86
2019-03-18T04:17:54.691Z,67.97
2019-03-18T04:20:58.901Z,67.92
2019-03-18T04:24:11.846Z,67.84
2019-03-18T04:27:16.899Z,67.58
2019-03-18T04:30:33.744Z,67.40
2019-03-18T04:33:33.898Z,67.68
2019-03-18T04:36:48.862Z,67.62
2019-03-18T04:40:05.719Z,67.71
2019-03-18T04:43:19.522Z,66.73
2019-03-18T04:46:24.439Z,66.31
2019-03-18T04:49:38.027Z,66.50
2019-03-18T04:52:50.603Z,66.76
2019-03-18T04:56:03.869Z,66.15
2019-03-18T04:59:04.345Z,66.09
2019-03-18T05:02:19.763Z,66.29
2019-03-18T05:05:21.514Z,66.47
2019-03-18T05:08:38.159Z,66.09
2019-03-18T05:11:42.144Z,65.98
2019-03-18T05:14:56.802Z,65.29
2019-03-18T05:18:09.161Z,65.50
2019-03-18T05:21:23.359Z,65.96
2019-03-18T05:24:28.560Z,65.50
2019-03-18T05:27:42.468Z,65.43
2019-03-18T05:30:41.860Z,65.47
2019-03-18T05:33:56.489Z,65.75
2019-03-18T05:36:56.504Z,66.68
2019-03-18T05:39:29.219Z,67.25
2019-03-18T05:41:55.917Z,67.05
2019-03-18T05:44:22.568Z,67.71
2019-03-18T05:46:49.229Z,67.88
2019-03-18T05:49:15.940Z,67.78
2019-03-18T05:51:42.566Z,68.16
2019-03-18T05:54:09.298Z,68.47
2019-03-18T05:56:36.100Z,68.67
2019-03-18T05:59:02.715Z,68.46
2019-03-18T06:01:29.414Z,68.60
2019-03-18T06:03:56.116Z,67.86
2019-03-18T06:06:22.901Z,67.00
2019-03-18T06:08:49.598Z,66.93
2019-03-18T06:11:16.340Z,66.36
2019-03-18T06:13:42.951Z,66.22
2019-03-18T06:16:09.654Z,65.92
2019-03-18T06:18:36.350Z,64.32
2019-03-18T06:21:03.055Z,63.54
2019-03-18T06:23:29.821Z,64.14
2019-03-18T06:25:56.546Z,62.98
2019-03-18T06:28:23.176Z,61.94
2019-03-18T06:30:49.846Z,61.59
2019-03-18T06:33:16.530Z,61.01
2019-03-18T06:35:43.185Z,60.26
2019-03-18T06:38:09.990Z,61.18
2019-03-18T06:40:36.679Z,60.97
2019-03-18T06:43:03.370Z,61.95
2019-03-18T06:45:30.028Z,60.44
2019-03-18T06:48:04.727Z,61.63
2019-03-18T06:50:25.275Z,63.18
2019-03-18T06:52:51.961Z,64.76
2019-03-18T06:55:19.521Z,64.14
2019-03-18T06:57:46.174Z,65.52
2019-03-18T07:00:15.125Z,66.52
2019-03-18T07:02:41.854Z,66.45
2019-03-18T07:05:08.620Z,66.33
2019-03-18T07:07:35.262Z,66.68
2019-03-18T07:10:03.102Z,67.14
2019-03-18T07:12:29.774Z,66.62
2019-03-18T07:14:56.509Z,66.94
2019-03-18T07:17:23.191Z,68.17
2019-03-18T07:19:49.875Z,67.03
2019-03-18T07:22:16.540Z,67.74
2019-03-18T07:24:43.270Z,67.09
2019-03-18T07:27:10.210Z,66.86
2019-03-18T07:29:36.907Z,66.56
2019-03-18T07:32:03.619Z,65.90
2019-03-18T07:34:30.255Z,66.67
2019-03-18T07:36:57.023Z,66.34
2019-03-18T07:39:23.731Z,66.58
2019-03-18T07:41:50.519Z,66.11
2019-03-18T07:44:17.231Z,66.90
2019-03-18T07:46:44.128Z,67.30
2019-03-18T07:49:10.742Z,67.37
2019-03-18T07:51:37.426Z,68.14
2019-03-18T07:54:04.250Z,67.96
2019-03-18T07:56:31.027Z,68.29
2019-03-18T07:58:57.800Z,67.94
2019-03-18T08:01:24.577Z,67.98
2019-03-18T08:03:51.172Z,67.68
2019-03-18T08:06:17.843Z,68.76
2019-03-18T08:08:44.551Z,69.10
2019-03-18T08:11:11.209Z,70.52
2019-03-18T08:13:37.956Z,70.17
2019-03-18T08:16:04.650Z,69.48
2019-03-18T08:18:42.690Z,71.21
2019-03-18T08:20:59.978Z,71.56
2019-03-18T08:23:27.718Z,71.16
2019-03-18T08:25:54.349Z,70.85
2019-03-18T08:28:21.056Z,71.48
2019-03-18T08:30:47.764Z,72.94
2019-03-18T08:33:14.543Z,73.63
2019-03-18T08:35:41.186Z,73.73
2019-03-18T08:38:07.912Z,74.57
2019-03-18T08:40:34.540Z,74.89
2019-03-18T08:43:01.278Z,74.89
2019-03-18T08:45:28.123Z,75.66
2019-03-18T08:47:54.864Z,75.71
2019-03-18T08:50:21.505Z,75.62
2019-03-18T08:52:48.366Z,76.62
2019-03-18T08:55:14.982Z,75.76
2019-03-18T08:57:41.716Z,75.20
2019-03-18T09:00:13.789Z,76.23
2019-03-18T09:02:40.320Z,76.08
2019-03-18T09:05:08.291Z,76.67
2019-03-18T09:07:35.033Z,76.79
2019-03-18T09:10:01.702Z,75.93
2019-03-18T09:12:28.382Z,76.26
2019-03-18T09:14:55.054Z,77.11
2019-03-18T09:17:21.838Z,76.30
2019-03-18T09:19:48.542Z,77.12
2019-03-18T09:22:15.255Z,76.81
2019-03-18T09:24:41.879Z,76.39
2019-03-18T09:27:08.637Z,76.40
2019-03-18T09:29:35.312Z,76.59
2019-03-18T09:32:02.076Z,76.33
2019-03-18T09:34:28.785Z,76.43
2019-03-18T09:36:55.505Z,76.36
2019-03-18T09:39:22.116Z,76.36
2019-03-18T09:41:48.820Z,75.39
2019-03-18T09:44:15.493Z,74.81
2019-03-18T09:46:42.248Z,74.43
2019-03-18T09:49:20.616Z,74.97
2019-03-18T09:51:37.623Z,75.46
2019-03-18T09:54:04.284Z,74.07
2019-03-18T09:56:30.936Z,74.46
2019-03-18T09:58:57.722Z,74.65
2019-03-18T10:01:24.477Z,72.84
2019-03-18T10:03:52.311Z,73.33
2019-03-18T10:06:20.045Z,73.68
2019-03-18T10:08:46.655Z,72.20
2019-03-18T10:11:13.359Z,72.90
2019-03-18T10:13:40.092Z,73.48
2019-03-18T10:16:06.851Z,73.57
2019-03-18T10:18:33.501Z,72.31
2019-03-18T10:21:00.305Z,72.39
2019-03-18T10:23:26.911Z,72.75
2019-03-18T10:25:53.614Z,72.59
2019-03-18T10:28:20.443Z,71.62
2019-03-18T10:30:47.102Z,74.11
2019-03-18T10:33:13.761Z,70.92
2019-03-18T10:35:40.496Z,71.92
2019-03-18T10:38:07.102Z,73.83
2019-03-18T10:40:33.807Z,76.04
2019-03-18T10:43:00.514Z,77.47
2019-03-18T10:45:27.230Z,77.83
2019-03-18T10:47:55.002Z,78.92
2019-03-18T10:50:21.939Z,79.56
2019-03-18T10:52:48.756Z,79.98
2019-03-18T10:55:15.572Z,80.66
2019-03-18T10:57:42.299Z,80.39
2019-03-18T11:00:12.592Z,80.66
2019-03-18T11:02:39.260Z,79.84
2019-03-18T11:05:08.186Z,80.49
2019-03-18T11:07:36.086Z,81.06
2019-03-18T11:10:05.751Z,80.01
2019-03-18T11:12:32.433Z,80.26
2019-03-18T11:14:59.169Z,80.30
2019-03-18T11:17:25.871Z,79.68
2019-03-18T11:19:58.367Z,79.90
2019-03-18T11:22:21.118Z,78.69
2019-03-18T11:24:47.860Z,78.90
2019-03-18T11:27:14.570Z,77.81
2019-03-18T11:29:41.346Z,77.72
2019-03-18T11:32:08.262Z,77.92
2019-03-18T11:34:34.972Z,77.18
2019-03-18T11:37:01.583Z,76.90
2019-03-18T11:39:28.281Z,76.99
2019-03-18T11:41:54.980Z,77.21
2019-03-18T11:44:21.690Z,77.07
2019-03-18T11:46:48.399Z,76.15
2019-03-18T11:49:15.110Z,76.23
2019-03-18T11:51:41.792Z,76.01
2019-03-18T11:54:08.471Z,76.06
2019-03-18T11:56:35.199Z,76.55
2019-03-18T11:59:01.799Z,76.39
2019-03-18T12:01:28.402Z,76.83
2019-03-18T12:03:55.101Z,75.96
2019-03-18T12:06:21.930Z,76.55
2019-03-18T12:08:48.542Z,77.37
2019-03-18T12:11:15.239Z,77.00
2019-03-18T12:13:41.878Z,77.22
2019-03-18T12:16:08.488Z,77.14
2019-03-18T12:18:35.194Z,77.59
2019-03-18T12:21:01.815Z,77.18
2019-03-18T12:23:29.546Z,77.15
2019-03-18T12:25:56.248Z,77.42
2019-03-18T12:28:22.972Z,77.13
2019-03-18T12:30:49.635Z,77.45
2019-03-18T12:33:16.440Z,75.97
2019-03-18T12:35:43.063Z,76.94
2019-03-18T12:38:09.724Z,76.30
2019-03-18T12:40:36.398Z,76.48
2019-03-18T12:43:03.036Z,76.20
2019-03-18T12:45:29.682Z,77.44
2019-03-18T12:47:56.465Z,77.18
2019-03-18T12:50:39.199Z,77.09
2019-03-18T12:52:53.599Z,76.28
2019-03-18T12:55:20.280Z,76.90
2019-03-18T12:57:46.927Z,77.18
2019-03-18T13:00:22.862Z,78.73
2019-03-18T13:02:50.652Z,78.74
2019-03-18T13:05:17.581Z,79.45
2019-03-18T13:07:44.303Z,79.31
2019-03-18T13:10:21.399Z,77.36
2019-03-18T13:12:47.454Z,78.10
2019-03-18T13:15:16.434Z,77.48
2019-03-18T13:17:44.285Z,76.59
2019-03-18T13:20:18.389Z,76.39
2019-03-18T13:22:45.122Z,75.55
2019-03-18T13:25:12.445Z,75.05
2019-03-18T13:27:39.053Z,74.87
2019-03-18T13:30:16.590Z,75.46
2019-03-18T13:32:44.556Z,75.61
2019-03-18T13:35:11.202Z,75.02
2019-03-18T13:37:37.865Z,74.72
2019-03-18T13:40:13.078Z,74.58
2019-03-18T13:42:39.731Z,76.12
2019-03-18T13:45:14.316Z,76.30
2019-03-18T13:47:41.046Z,76.30
2019-03-18T13:50:10.163Z,76.34
2019-03-18T13:52:36.826Z,75.73
2019-03-18T13:55:05.300Z,77.08
2019-03-18T13:57:31.987Z,75.16
2019-03-18T13:59:58.736Z,77.20
2019-03-18T14:02:25.476Z,76.82
2019-03-18T14:04:52.449Z,76.24
2019-03-18T14:07:21.311Z,76.02
2019-03-18T14:09:47.766Z,75.63
2019-03-18T14:12:14.381Z,75.87
2019-03-18T14:14:41.083Z,74.80
2019-03-18T14:17:07.757Z,75.39
2019-03-18T14:19:34.517Z,76.18
2019-03-18T14:22:01.360Z,76.15
2019-03-18T14:24:28.170Z,76.00
2019-03-18T14:26:54.796Z,76.64
2019-03-18T14:29:21.507Z,75.86
2019-03-18T14:31:48.245Z,76.23
2019-03-18T14:34:14.884Z,75.25
2019-03-18T14:36:41.654Z,75.82
2019-03-18T14:39:08.336Z,76.22
2019-03-18T14:41:35.102Z,74.48
2019-03-18T14:44:01.768Z,75.93
2019-03-18T14:46:28.471Z,76.23
2019-03-18T14:48:56.111Z,76.63
2019-03-18T14:51:22.796Z,77.61
2019-03-18T14:53:49.496Z,77.74
2019-03-18T14:56:16.135Z,78.15
2019-03-18T14:58:42.774Z,79.22
2019-03-18T15:01:09.610Z,79.76
2019-03-18T15:03:36.255Z,79.64
2019-03-18T15:06:03.051Z,80.18
2019-03-18T15:08:29.683Z,78.95
2019-03-18T15:10:56.398Z,79.09
2019-03-18T15:13:30.791Z,78.34
2019-03-18T15:15:51.628Z,79.13
2019-03-18T15:18:18.307Z,79.82
2019-03-18T15:20:44.946Z,79.33
2019-03-18T15:23:11.589Z,78.19
2019-03-18T15:25:38.296Z,77.30
2019-03-18T15:28:04.926Z,77.93
2019-03-18T15:30:31.612Z,77.10
2019-03-18T15:32:58.721Z,77.22
2019-03-18T15:35:25.352Z,78.05
2019-03-18T15:37:51.995Z,78.27
2019-03-18T15:40:27.076Z,77.48
2019-03-18T15:42:53.681Z,75.92
2019-03-18T15:45:21.046Z,76.17
2019-03-18T15:47:47.828Z,75.39
2019-03-18T15:50:19.930Z,75.96
2019-03-18T15:52:46.385Z,75.49
2019-03-18T15:55:13.087Z,74.50
2019-03-18T15:57:39.720Z,74.45
2019-03-18T16:00:12.049Z,74.44
2019-03-18T16:02:38.720Z,75.06
2019-03-18T16:05:06.529Z,74.53
2019-03-18T16:07:33.239Z,74.36
2019-03-18T16:09:59.975Z,73.97
2019-03-18T16:12:26.598Z,75.48
2019-03-18T16:14:53.276Z,75.65
2019-03-18T16:17:19.981Z,75.29
2019-03-18T16:19:46.763Z,75.29
2019-03-18T16:22:22.994Z,75.57
2019-03-18T16:24:42.093Z,75.69
2019-03-18T16:27:08.725Z,75.99
2019-03-18T16:29:35.447Z,75.94
2019-03-18T16:32:10.759Z,76.74
2019-03-18T16:34:30.774Z,77.10
2019-03-18T16:36:57.499Z,77.53
2019-03-18T16:39:24.261Z,76.92
2019-03-18T16:41:50.872Z,77.37
2019-03-18T16:44:17.541Z,77.12
2019-03-18T16:46:44.221Z,77.21
2019-03-18T16:49:10.861Z,78.06
2019-03-18T16:51:37.577Z,78.12
2019-03-18T16:54:04.245Z,78.23
2019-03-18T16:56:30.879Z,77.14
2019-03-18T16:58:57.519Z,77.52
2019-03-18T17:01:24.231Z,77.37
2019-03-18T17:03:50.862Z,77.77
2019-03-18T17:06:17.538Z,77.76
2019-03-18T17:08:44.243Z,76.86
2019-03-18T17:11:11.029Z,76.79
2019-03-18T17:13:37.763Z,76.54
2019-03-18T17:16:04.537Z,76.42
2019-03-18T17:18:31.148Z,76.65
2019-03-18T17:20:57.808Z,76.68
2019-03-18T17:23:24.565Z,76.32
2019-03-18T17:25:51.191Z,76.94
2019-03-18T17:28:17.805Z,77.32
2019-03-18T17:30:44.504Z,76.55
2019-03-18T17:33:11.112Z,76.01
2019-03-18T17:35:37.718Z,77.06
2019-03-18T17:38:04.392Z,76.55
2019-03-18T17:40:31.017Z,76.48
2019-03-18T17:42:57.775Z,75.75
2019-03-18T17:45:24.453Z,75.53
2019-03-18T17:47:51.108Z,76.19
2019-03-18T17:50:20.604Z,76.13
2019-03-18T17:52:47.292Z,75.52
2019-03-18T17:55:13.976Z,76.32
2019-03-18T17:57:40.638Z,76.20
2019-03-18T18:00:18.618Z,75.82
2019-03-18T18:02:45.321Z,75.44
2019-03-18T18:05:12.140Z,74.80
2019-03-18T18:07:38.942Z,75.04
2019-03-18T18:10:08.214Z,75.57
2019-03-18T18:12:34.863Z,75.31
2019-03-18T18:15:01.594Z,75.80
2019-03-18T18:17:28.186Z,76.23
2019-03-18T18:19:54.867Z,76.37
2019-03-18T18:22:21.607Z,77.47
2019-03-18T18:24:48.247Z,77.09
2019-03-18T18:27:14.983Z,77.60
2019-03-18T18:29:41.674Z,78.19
2019-03-18T18:32:08.405Z,78.62
2019-03-18T18:34:35.130Z,79.54
2019-03-18T18:37:01.844Z,80.23
2019-03-18T18:39:28.579Z,80.49
2019-03-18T18:41:55.283Z,79.88
2019-03-18T18:44:21.993Z,80.96
2019-03-18T18:46:48.708Z,81.21
2019-03-18T18:49:15.414Z,80.87
2019-03-18T18:51:42.151Z,80.52
2019-03-18T18:54:08.775Z,80.74
2019-03-18T18:56:35.449Z,79.88
2019-03-18T18:59:02.165Z,79.17
2019-03-18T19:01:28.768Z,78.74
2019-03-18T19:03:55.385Z,78.88
2019-03-18T19:06:22.094Z,78.63
2019-03-18T19:08:48.703Z,78.37
2019-03-18T19:11:15.341Z,78.10
2019-03-18T19:13:42.100Z,78.38
2019-03-18T19:16:08.709Z,77.42
2019-03-18T19:18:38.111Z,77.29
2019-03-18T19:21:04.247Z,77.25
2019-03-18T19:23:37.568Z,77.62
2019-03-18T19:25:59.554Z,77.97
2019-03-18T19:28:26.304Z,77.67
2019-03-18T19:30:53.152Z,77.66
2019-03-18T19:33:19.884Z,78.03
2019-03-18T19:35:46.612Z,78.22
2019-03-18T19:38:13.251Z,78.11
2019-03-18T19:40:39.947Z,78.00
2019-03-18T19:43:06.634Z,77.46
2019-03-18T19:45:33.400Z,77.29
2019-03-18T19:48:00.039Z,77.61
2019-03-18T19:50:32.959Z,78.04
2019-03-18T19:52:59.567Z,78.31
2019-03-18T19:55:26.265Z,77.12
2019-03-18T19:57:52.951Z,77.84
2019-03-18T20:00:30.196Z,77.93
2019-03-18T20:02:57.012Z,77.15
2019-03-18T20:05:23.648Z,76.97
2019-03-18T20:07:50.358Z,76.82
2019-03-18T20:10:17.910Z,76.69
2019-03-18T20:12:44.590Z,77.21
2019-03-18T20:15:13.271Z,77.14
2019-03-18T20:17:40.000Z,77.46
2019-03-18T20:20:10.122Z,77.42
2019-03-18T20:22:36.850Z,77.10
2019-03-18T20:25:06.154Z,76.54
2019-03-18T20:27:32.832Z,76.98
2019-03-18T20:30:00.606Z,76.77
2019-03-18T20:32:27.287Z,76.22
2019-03-18T20:34:54.025Z,76.67
2019-03-18T20:37:20.738Z,77.13
2019-03-18T20:39:47.380Z,75.97
2019-03-18T20:42:14.049Z,77.66
2019-03-18T20:44:42.031Z,77.72
2019-03-18T20:47:09.666Z,77.51
2019-03-18T20:49:36.534Z,77.65
2019-03-18T20:52:03.196Z,76.89
2019-03-18T20:54:30.015Z,77.63
2019-03-18T20:56:56.630Z,77.67
2019-03-18T20:59:23.310Z,77.90
2019-03-18T21:01:53.761Z,77.53
2019-03-18T21:04:34.128Z,76.79
2019-03-18T21:07:04.752Z,76.83
2019-03-18T21:09:31.454Z,75.89
2019-03-18T21:11:58.158Z,76.23
2019-03-18T21:14:24.913Z,76.30
2019-03-18T21:16:51.715Z,76.20
2019-03-18T21:19:18.319Z,76.26
2019-03-18T21:21:45.036Z,76.92
2019-03-18T21:24:22.407Z,77.08
2019-03-18T21:26:40.415Z,77.10
2019-03-18T21:29:07.123Z,76.94
2019-03-18T21:31:33.872Z,76.35
2019-03-18T21:34:00.597Z,76.31
2019-03-18T21:36:37.549Z,76.16
2019-03-18T21:38:55.895Z,76.20
2019-03-18T21:41:22.518Z,76.11
2019-03-18T21:43:49.204Z,76.34
2019-03-18T21:46:15.878Z,76.54
2019-03-18T21:48:42.497Z,76.03
2019-03-18T21:51:09.138Z,76.19
2019-03-18T21:53:35.860Z,76.42
2019-03-18T21:56:02.495Z,76.40
2019-03-18T21:58:29.110Z,76.09
2019-03-18T22:00:55.811Z,77.02
2019-03-18T22:03:22.433Z,78.19
2019-03-18T22:05:49.082Z,78.50
2019-03-18T22:08:15.757Z,78.92
2019-03-18T22:10:42.471Z,78.29
2019-03-18T22:13:09.111Z,78.29
2019-03-18T22:15:35.837Z,77.60
2019-03-18T22:18:02.469Z,77.90
2019-03-18T22:20:29.163Z,77.78
2019-03-18T22:22:55.857Z,78.00
2019-03-18T22:25:22.509Z,77.70
2019-03-18T22:27:49.186Z,78.18
2019-03-18T22:30:19.007Z,78.70
2019-03-18T22:32:46.740Z,78.44
2019-03-18T22:35:13.440Z,80.29
2019-03-18T22:37:40.123Z,80.43
2019-03-18T22:40:11.432Z,80.84
2019-03-18T22:42:38.130Z,80.66
2019-03-18T22:45:08.637Z,80.65
2019-03-18T22:47:35.367Z,80.23
2019-03-18T22:50:03.842Z,79.18
2019-03-18T22:52:30.579Z,78.95
2019-03-18T22:54:57.179Z,79.40
2019-03-18T22:57:23.884Z,79.27
2019-03-18T22:59:50.671Z,78.68
2019-03-18T23:02:17.503Z,77.74
2019-03-18T23:04:44.235Z,77.79
2019-03-18T23:07:10.953Z,78.45
2019-03-18T23:09:37.559Z,78.45
2019-03-18T23:12:04.202Z,78.01
2019-03-18T23:14:30.942Z,77.85
2019-03-18T23:16:57.545Z,78.18
2019-03-18T23:19:24.589Z,78.38
2019-03-18T23:21:51.263Z,78.19
2019-03-18T23:24:17.897Z,78.55
2019-03-18T23:26:44.526Z,78.36
2019-03-18T23:29:11.240Z,78.38
2019-03-18T23:31:37.839Z,78.31
2019-03-18T23:34:04.464Z,77.14
2019-03-18T23:36:31.169Z,78.30
2019-03-18T23:38:57.797Z,78.28
2019-03-18T23:41:24.426Z,78.27
2019-03-18T23:43:51.154Z,77.15
2019-03-18T23:46:17.832Z,77.26
2019-03-18T23:48:44.509Z,77.60
2019-03-18T23:51:11.226Z,77.92
2019-03-18T23:53:38.860Z,75.92
2019-03-18T23:56:05.524Z,76.72
2019-03-18T23:58:32.243Z,77.14
